ADDS METAR Data INFO
IDs: Format: Raw Decoded Include TAF

Data at: 0923 UTC 13 Dec 2017

KL18 130915Z AUTO 35007KT 320V020 10SM CLR 16/M16 A3003 RMK AO2
KL18 130855Z AUTO 03004KT 10SM CLR 16/M16 A3003 RMK AO2
KL18 130835Z AUTO 35005KT 10SM CLR 17/M17 A3003 RMK AO2
KL18 130815Z AUTO 00000KT 10SM CLR 16/M15 A3004 RMK AO2
KL18 130755Z AUTO 04006KT 10SM CLR 16/M17 A3004 RMK AO2
KL18 130735Z AUTO 04005KT 10SM CLR 17/M16 A3004 RMK AO2
KL18 130715Z AUTO 02005KT 10SM CLR 16/M15 A3004 RMK AO2
KL18 130655Z AUTO 08003KT 10SM CLR 16/M17 A3005 RMK AO2
KL18 130635Z AUTO 34004KT 10SM CLR 17/M17 A3005 RMK AO2
KL18 130615Z AUTO 35006KT 10SM CLR 17/M17 A3005 RMK AO2
KL18 130555Z AUTO 00000KT 10SM CLR 18/M16 A3005 RMK AO2
KL18 130535Z AUTO 35005KT 10SM CLR 19/M16 A3005 RMK AO2
KL18 130515Z AUTO 01003KT 10SM CLR 19/M15 A3006 RMK AO2
KL18 130455Z AUTO 04003KT 10SM CLR 18/M11 A3006 RMK AO2
KL18 130435Z AUTO 32004KT 10SM CLR 16/M06 A3006 RMK AO2
KL18 130415Z AUTO 02003KT 10SM CLR 17/M06 A3006 RMK AO2
KL18 130355Z AUTO 36005KT 10SM CLR 18/M05 A3006 RMK AO2
KL18 130335Z AUTO 02005KT 10SM CLR 19/M05 A3006 RMK AO2
KL18 130315Z AUTO 03003KT 10SM CLR 19/M04 A3006 RMK AO2
KL18 130255Z AUTO 04003KT 10SM CLR 19/M03 A3006 RMK AO2
KL18 130235Z AUTO 07003KT 10SM CLR 19/M02 A3006 RMK AO2
KL18 130215Z AUTO 00000KT 10SM CLR 19/M01 A3006 RMK AO2
KL18 130155Z AUTO 07003KT 10SM CLR 19/00 A3005 RMK AO2
KL18 130135Z AUTO 08004KT 10SM CLR 19/02 A3005 RMK AO2
KL18 130115Z AUTO 18005KT 10SM CLR 20/03 A3005 RMK AO2
KL18 130055Z AUTO 17005KT 10SM CLR 21/03 A3004 RMK AO2
KL18 130035Z AUTO 17003KT 10SM CLR 23/00 A3004 RMK AO2
KL18 130015Z AUTO 19004KT 10SM CLR 24/M02 A3004 RMK AO2
KL18 122355Z AUTO 00000KT 10SM CLR 25/M04 A3004 RMK AO2
KL18 122335Z AUTO 24007KT 10SM CLR 27/M10 A3004 RMK AO2
KL18 122315Z AUTO 22008KT 10SM CLR 27/M11 A3004 RMK AO2
KL18 122255Z AUTO 23007KT 10SM CLR 28/M11 A3004 RMK AO2
KL18 122235Z AUTO 24007KT 10SM CLR 28/M11 A3004 RMK AO2
KL18 122215Z AUTO 24007KT 10SM CLR 28/M11 A3005 RMK AO2
KL18 122155Z AUTO 00000KT 10SM CLR 29/M19 A3005 RMK AO2
KL18 122135Z AUTO 00000KT 10SM CLR 28/M20 A3006 RMK AO2
KL18 122115Z AUTO 36004KT 10SM CLR 29/M19 A3006 RMK AO2
KL18 122055Z AUTO 03003KT 10SM CLR 29/M18 A3008 RMK AO2
KL18 122035Z AUTO 00000KT 10SM CLR 28/M16 A3009 RMK AO2
KL18 122015Z AUTO 35003KT 10SM CLR 28/M17 A3010 RMK AO2
KL18 121955Z AUTO 08004KT 10SM CLR 27/M16 A3012 RMK AO2
KL18 121935Z AUTO 03003KT 10SM CLR 27/M16 A3013 RMK AO2
KL18 121915Z AUTO 04003KT 10SM CLR 26/M15 A3015 RMK AO2
KL18 121855Z AUTO 00000KT 10SM CLR 25/M14 A3017 RMK AO2
KL18 121835Z AUTO 06004KT 10SM CLR 25/M15 A3018 RMK AO2
KL18 121815Z AUTO 07005KT 10SM CLR 24/M14 A3019 RMK AO2
KL18 121755Z AUTO 05004KT 10SM CLR 23/M12 A3020 RMK AO2
KL18 121735Z AUTO 00000KT 10SM CLR 22/M08 A3020 RMK AO2
KL18 121715Z AUTO 00000KT 10SM CLR 20/M08 A3021 RMK AO2
KL18 121655Z AUTO 00000KT 10SM CLR 19/M07 A3020 RMK AO2
KL18 121635Z AUTO 00000KT 10SM CLR 18/M12 A3020 RMK AO2
KL18 121615Z AUTO 02003KT 10SM CLR 17/M15 A3020 RMK AO2
KL18 121555Z AUTO 35006KT 10SM CLR 16/M15 A3019 RMK AO2
KL18 121535Z AUTO 02005KT 10SM CLR 16/M16 A3019 RMK AO2
KL18 121515Z AUTO 02004KT 10SM CLR 15/M17 A3019 RMK AO2
KL18 121455Z AUTO 02006KT 10SM CLR 15/M17 A3019 RMK AO2
KL18 121435Z AUTO 04003KT 10SM CLR 15/M16 A3019 RMK AO2
KL18 121415Z AUTO 04007KT 10SM CLR 14/M15 A3019 RMK AO2
KL18 121355Z AUTO 04007G14KT 10SM CLR 16/M16 A3019 RMK AO2
KL18 121335Z AUTO 06003KT 10SM CLR 15/M15 A3019 RMK AO2
KL18 121315Z AUTO 05005KT 10SM CLR 14/M13 A3019 RMK AO2
KL18 121255Z AUTO 06005KT 10SM CLR 15/M13 A3019 RMK AO2
KL18 121235Z AUTO 04004KT 10SM CLR 15/M14 A3019 RMK AO2
KL18 121215Z AUTO 02005KT 10SM CLR 15/M15 A3019 RMK AO2
KL18 121155Z AUTO 04004KT 10SM CLR 15/M16 A3020 RMK AO2
KL18 121135Z AUTO 07003KT 10SM CLR 15/M16 A3020 RMK AO2
KL18 121115Z AUTO 06004KT 10SM CLR 15/M15 A3020 RMK AO2
KL18 121055Z AUTO 05004KT 10SM CLR 15/M16 A3020 RMK AO2
KL18 121035Z AUTO 00000KT 10SM CLR 16/M18 A3020 RMK AO2
KL18 121015Z AUTO 00000KT 10SM CLR 15/M17 A3020 RMK AO2
KL18 120955Z AUTO 00000KT 10SM CLR 15/M17 A3021 RMK AO2
KL18 120935Z AUTO 05003KT 10SM CLR 16/M16 A3020 RMK AO2
KL18 120915Z AUTO 03008KT 10SM CLR 16/M17 A3020 RMK AO2
KL18 120855Z AUTO 03006KT 10SM CLR 16/M16 A3020 RMK AO2
KL18 120835Z AUTO 02007KT 340V040 10SM CLR 16/M16 A3020 RMK AO2
KL18 120815Z AUTO 03006KT 10SM CLR 16/M16 A3020 RMK AO2
KL18 120755Z AUTO 02006KT 10SM CLR 16/M16 A3020 RMK AO2
KL18 120735Z AUTO 04003KT 10SM CLR 16/M17 A3021 RMK AO2
KL18 120715Z AUTO 05003KT 10SM CLR 16/M15 A3020 RMK AO2
KL18 120655Z AUTO 03004KT 10SM CLR 17/M16 A3021 RMK AO2
KL18 120635Z AUTO 00000KT 10SM CLR 18/M16 A3021 RMK AO2
KL18 120615Z AUTO 00000KT 10SM CLR 18/M16 A3021 RMK AO2
KL18 120555Z AUTO 04003KT 10SM CLR 17/M15 A3020 RMK AO2
KL18 120535Z AUTO 00000KT 10SM CLR 17/M15 A3020 RMK AO2
KL18 120515Z AUTO 00000KT 10SM CLR 17/M14 A3020 RMK AO2
KL18 120455Z AUTO 03003KT 10SM CLR 18/M14 A3020 RMK AO2
KL18 120435Z AUTO 12004KT 10SM CLR 19/M15 A3019 RMK AO2
KL18 120415Z AUTO 07003KT 10SM CLR 19/M14 A3019 RMK AO2
KL18 120355Z AUTO 00000KT 10SM CLR 19/M13 A3019 RMK AO2
KL18 120335Z AUTO 06004KT 10SM CLR 18/M12 A3019 RMK AO2
KL18 120315Z AUTO 04004KT 10SM CLR 20/M12 A3019 RMK AO2
KL18 120255Z AUTO 04003KT 10SM CLR 19/M07 A3019 RMK AO2
KL18 120235Z AUTO 17004KT 10SM CLR 19/M07 A3019 RMK AO2
KL18 120215Z AUTO 08003KT 10SM CLR 19/M06 A3019 RMK AO2
KL18 120155Z AUTO 08004KT 10SM CLR 19/M06 A3019 RMK AO2
KL18 120135Z AUTO 07003KT 10SM CLR 19/M08 A3018 RMK AO2
KL18 120115Z AUTO 00000KT 10SM CLR 21/M10 A3017 RMK AO2
KL18 120055Z AUTO 24003KT 10SM CLR 22/M11 A3017 RMK AO2
KL18 120035Z AUTO 24004KT 10SM CLR 23/M10 A3016 RMK AO2
KL18 120015Z AUTO 23004KT 10SM CLR 24/M10 A3016 RMK AO2
KL18 112355Z AUTO 24006KT 10SM CLR 25/M11 A3015 RMK AO2
KL18 112335Z AUTO 24008KT 10SM CLR 25/M11 A3015 RMK AO2
KL18 112315Z AUTO 25008KT 10SM CLR 27/M09 A3015 RMK AO2
KL18 112255Z AUTO 25005KT 10SM CLR 27/M10 A3014 RMK AO2
KL18 112235Z AUTO 25004KT 10SM CLR 27/M10 A3014 RMK AO2
KL18 112215Z AUTO 23006KT 10SM CLR 27/M11 A3015 RMK AO2
KL18 112155Z AUTO 26004KT 10SM CLR 27/M11 A3015 RMK AO2
KL18 112135Z AUTO 27004KT 10SM CLR 27/M12 A3016 RMK AO2